UAL2619 KPWM-KEWR
Flight info
| Callsign | UAL2619 |
|---|---|
| Flight time | N/A |
| Altitude | 40000 |
| Route | HSKEL3 HANAA FLOSI4 |
| Aircraft | B736/M-SDE2E3FGHIRWXY/LB1 |
Departure
| Time | 2026-05-06 20:22 |
|---|---|
| Airport | Portland International Jetport (KPWM) |
Arrival
| Time | N/A |
|---|---|
| Airport | Newark Liberty International Airport (KEWR) |
| Time | Latitude | Longitude | Altitude | Speed | Heading |
|---|---|---|---|---|---|
| 2026-05-06 20:06 | 43.64728 | -70.31304 | 59 ft | 0 kts | 31° |
| 2026-05-06 20:14 | 43.64722 | -70.31309 | 65 ft | 3 kts | 31° |
| 2026-05-06 20:14 | 43.64707 | -70.31322 | 58 ft | 3 kts | 31° |
| 2026-05-06 20:15 | 43.64692 | -70.31334 | 66 ft | 3 kts | 31° |
| 2026-05-06 20:15 | 43.64677 | -70.31347 | 67 ft | 3 kts | 31° |
| 2026-05-06 20:15 | 43.64661 | -70.31360 | 67 ft | 3 kts | 31° |
| 2026-05-06 20:15 | 43.64646 | -70.31372 | 68 ft | 3 kts | 31° |
| 2026-05-06 20:16 | 43.64631 | -70.31385 | 72 ft | 3 kts | 31° |
| 2026-05-06 20:16 | 43.64621 | -70.31393 | 67 ft | 1 kts | 31° |
| 2026-05-06 20:16 | 43.64617 | -70.31398 | 67 ft | 1 kts | 332° |
| 2026-05-06 20:16 | 43.64613 | -70.31396 | 68 ft | 0 kts | 273° |
| 2026-05-06 20:18 | 43.64613 | -70.31399 | 68 ft | 2 kts | 274° |
| 2026-05-06 20:18 | 43.64616 | -70.31449 | 73 ft | 9 kts | 275° |
| 2026-05-06 20:18 | 43.64630 | -70.31582 | 77 ft | 14 kts | 275° |
| 2026-05-06 20:18 | 43.64634 | -70.31716 | 77 ft | 14 kts | 279° |
| 2026-05-06 20:19 | 43.64648 | -70.31863 | 77 ft | 20 kts | 275° |
| 2026-05-06 20:19 | 43.64660 | -70.32053 | 85 ft | 20 kts | 275° |
| 2026-05-06 20:19 | 43.64672 | -70.32237 | 89 ft | 19 kts | 275° |
| 2026-05-06 20:19 | 43.64682 | -70.32415 | 88 ft | 18 kts | 271° |
| 2026-05-06 20:20 | 43.64674 | -70.32549 | 82 ft | 4 kts | 249° |
| 2026-05-06 20:20 | 43.64674 | -70.32550 | 83 ft | 0 kts | 248° |
| 2026-05-06 20:20 | 43.64654 | -70.32581 | 91 ft | 14 kts | 208° |
| 2026-05-06 20:21 | 43.64582 | -70.32526 | 92 ft | 14 kts | 109° |
| 2026-05-06 20:21 | 43.64552 | -70.32078 | 85 ft | 82 kts | 96° |
| 2026-05-06 20:21 | 43.64480 | -70.31004 | 85 ft | 135 kts | 95° |
| 2026-05-06 20:21 | 43.64367 | -70.29591 | 364 ft | 157 kts | 102° |
| 2026-05-06 20:22 | 43.64165 | -70.27998 | 650 ft | 181 kts | 103° |
| 2026-05-06 20:22 | 43.64092 | -70.26242 | 1310 ft | 190 kts | 87° |
| 2026-05-06 20:22 | 43.64774 | -70.24572 | 1876 ft | 211 kts | 55° |
| 2026-05-06 20:22 | 43.65763 | -70.22912 | 2241 ft | 241 kts | 49° |
| 2026-05-06 20:23 | 43.67263 | -70.21635 | 2514 ft | 266 kts | 14° |
| 2026-05-06 20:23 | 43.69089 | -70.20979 | 2942 ft | 274 kts | 3° |
| 2026-05-06 20:23 | 43.70976 | -70.21173 | 2998 ft | 280 kts | 339° |
| 2026-05-06 20:23 | 43.72847 | -70.22004 | 2991 ft | 280 kts | 321° |
| 2026-05-06 20:24 | 43.74135 | -70.23802 | 3624 ft | 258 kts | 292° |